Time;durP1;ratioP1;P1;durP2;ratioP2;P2;SDS_P1;SDS_P2;PMS_P1;PMS_P2;Temp;Humidity;BMP_temperature;BMP_pressure;BME280_temperature;BME280_humidity;BME280_pressure;Samples;Min_cycle;Max_cycle;Signal;HPM_P1;HPM_P2
2022/04/23 00:02:25;;;;;;;25.98;5.80;;;;;;;;;;5011919;28;20518;-39
2022/04/23 00:04:52;;;;;;;29.58;5.70;;;;;;;;;;5011639;28;20033;-41
2022/04/23 00:07:19;;;;;;;31.65;6.10;;;;;;;;;;5001366;28;20777;-40
2022/04/23 00:09:46;;;;;;;31.00;5.78;;;;;;;;;;5001127;28;20046;-40
2022/04/23 00:12:13;;;;;;;26.38;5.63;;;;;;;;;;4999961;28;20084;-40
2022/04/23 00:14:42;;;;;;;32.97;7.13;;;;;;;;;;4983573;28;20149;-39
2022/04/23 00:17:12;;;;;;;26.13;6.32;;;;;;;;;;5001628;28;20030;-39
2022/04/23 00:19:40;;;;;;;32.15;7.07;;;;;;;;;;4999848;28;20109;-42
2022/04/23 00:22:07;;;;;;;44.95;8.45;;;;;;;;;;5001799;28;20030;-39
2022/04/23 00:24:34;;;;;;;41.53;8.63;;;;;;;;;;4999528;28;20145;-39
2022/04/23 00:27:01;;;;;;;48.67;8.65;;;;;;;;;;5001459;28;20102;-39
2022/04/23 00:29:29;;;;;;;48.63;8.13;;;;;;;;;;4996028;28;20070;-38
2022/04/23 00:31:56;;;;;;;35.85;7.88;;;;;;;;;;4993452;28;20069;-38
2022/04/23 00:34:23;;;;;;;38.45;7.55;;;;;;;;;;4992070;28;20388;-38
2022/04/23 00:36:50;;;;;;;43.92;7.97;;;;;;;;;;4991736;28;20041;-39
2022/04/23 00:39:17;;;;;;;38.10;7.72;;;;;;;;;;4991699;28;20370;-38
2022/04/23 00:41:45;;;;;;;37.28;7.68;;;;;;;;;;4992136;28;20440;-38
2022/04/23 00:44:12;;;;;;;36.15;7.55;;;;;;;;;;5024118;28;20037;-38
2022/04/23 00:46:39;;;;;;;34.17;8.07;;;;;;;;;;5030332;28;20025;-38
2022/04/23 00:49:06;;;;;;;37.20;8.05;;;;;;;;;;5031381;28;20485;-38
2022/04/23 00:51:34;;;;;;;40.47;10.55;;;;;;;;;;5030683;28;20036;-39
2022/04/23 00:54:07;;;;;;;43.15;14.35;;;;;;;;;;5030994;28;20091;-37
2022/04/23 00:56:37;;;;;;;36.55;15.13;;;;;;;;;;5031194;28;20694;-38
2022/04/23 00:59:05;;;;;;;38.90;15.73;;;;;;;;;;5030946;28;20037;-38
2022/04/23 01:01:32;;;;;;;45.45;15.70;;;;;;;;;;5031058;28;20037;-38
2022/04/23 01:04:02;;;;;;;39.63;15.93;;;;;;;;;;5031299;28;20079;-39
2022/04/23 01:06:34;;;;;;;37.85;14.70;;;;;;;;;;5030276;28;20041;-38
2022/04/23 01:09:05;;;;;;;29.63;14.10;;;;;;;;;;5031041;28;20029;-38
2022/04/23 01:11:33;;;;;;;33.70;13.38;;;;;;;;;;5031073;28;20080;-38
2022/04/23 01:14:01;;;;;;;38.03;13.90;;;;;;;;;;5030505;28;20033;-39
2022/04/23 01:16:28;;;;;;;30.77;12.70;;;;;;;;;;5031261;28;20494;-39
2022/04/23 01:18:55;;;;;;;31.98;12.50;;;;;;;;;;5030988;28;20491;-38
2022/04/23 01:21:22;;;;;;;26.85;10.75;;;;;;;;;;5025566;28;20087;-38
2022/04/23 01:23:53;;;;;;;32.53;10.93;;;;;;;;;;5016453;28;20507;-39
2022/04/23 01:26:26;;;;;;;29.48;11.05;;;;;;;;;;5011024;28;20038;-37
2022/04/23 01:28:54;;;;;;;27.75;10.70;;;;;;;;;;5010601;28;20038;-38
2022/04/23 01:31:21;;;;;;;29.23;10.40;;;;;;;;;;5011053;28;20049;-38
2022/04/23 01:33:48;;;;;;;28.65;10.98;;;;;;;;;;5014580;28;20136;-38
2022/04/23 01:36:16;;;;;;;25.80;10.02;;;;;;;;;;5014830;28;20034;-38
2022/04/23 01:38:44;;;;;;;28.63;10.02;;;;;;;;;;5010113;28;20475;-38
2022/04/23 01:41:11;;;;;;;24.85;10.02;;;;;;;;;;5010810;28;20033;-38
2022/04/23 01:43:38;;;;;;;22.98;9.23;;;;;;;;;;5011418;28;20030;-38
2022/04/23 01:46:05;;;;;;;21.40;8.88;;;;;;;;;;5009431;28;20119;-38
2022/04/23 01:48:32;;;;;;;26.15;9.65;;;;;;;;;;5008979;28;20189;-39
2022/04/23 01:50:59;;;;;;;25.60;8.85;;;;;;;;;;5020977;28;20045;-39
2022/04/23 01:53:26;;;;;;;24.45;9.32;;;;;;;;;;5018018;28;20029;-39
2022/04/23 01:55:56;;;;;;;22.60;8.95;;;;;;;;;;5020573;28;20156;-40
2022/04/23 01:58:23;;;;;;;23.10;8.85;;;;;;;;;;5017350;28;20081;-40
2022/04/23 02:00:51;;;;;;;24.77;9.13;;;;;;;;;;5020746;28;20104;-39
2022/04/23 02:03:19;;;;;;;21.63;8.50;;;;;;;;;;5022509;28;20183;-40
2022/04/23 02:05:46;;;;;;;21.75;9.02;;;;;;;;;;5019519;28;20034;-42
2022/04/23 02:08:17;;;;;;;21.65;8.52;;;;;;;;;;5023020;28;20033;-40
2022/04/23 02:10:45;;;;;;;20.52;8.65;;;;;;;;;;5023058;28;20041;-38
2022/04/23 02:13:12;;;;;;;22.10;8.20;;;;;;;;;;5025393;28;20427;-39
2022/04/23 02:15:40;;;;;;;20.30;8.57;;;;;;;;;;5023839;28;20025;-41
2022/04/23 02:18:08;;;;;;;17.67;7.78;;;;;;;;;;5025476;28;20034;-40
2022/04/23 02:20:35;;;;;;;23.63;8.98;;;;;;;;;;5025559;28;20029;-40
2022/04/23 02:23:02;;;;;;;21.38;8.35;;;;;;;;;;5025130;28;20053;-41
2022/04/23 02:25:29;;;;;;;21.10;8.70;;;;;;;;;;5024069;28;20105;-40
2022/04/23 02:27:57;;;;;;;24.05;8.10;;;;;;;;;;5023235;28;20033;-39
2022/04/23 02:30:24;;;;;;;17.45;7.30;;;;;;;;;;5002415;28;20037;-40
2022/04/23 02:32:51;;;;;;;16.63;7.95;;;;;;;;;;5023786;28;20141;-41
2022/04/23 02:35:20;;;;;;;18.77;7.78;;;;;;;;;;5006965;28;20037;-41
2022/04/23 02:37:48;;;;;;;17.67;7.55;;;;;;;;;;5020977;28;20439;-40
2022/04/23 02:40:16;;;;;;;17.63;7.65;;;;;;;;;;5025580;28;20551;-41
2022/04/23 02:42:44;;;;;;;17.42;7.28;;;;;;;;;;5022483;28;20033;-40
2022/04/23 02:45:13;;;;;;;14.15;6.45;;;;;;;;;;5023701;28;20025;-40
2022/04/23 02:47:44;;;;;;;18.75;7.53;;;;;;;;;;5022016;28;20034;-42
2022/04/23 02:50:11;;;;;;;16.83;6.75;;;;;;;;;;5021925;28;20558;-40
2022/04/23 02:52:38;;;;;;;15.57;6.55;;;;;;;;;;5006881;28;20022;-41
2022/04/23 02:55:06;;;;;;;15.90;7.20;;;;;;;;;;5023725;28;20033;-41
2022/04/23 02:57:33;;;;;;;17.00;6.55;;;;;;;;;;5030688;28;20365;-40
2022/04/23 03:00:00;;;;;;;15.63;6.65;;;;;;;;;;5030917;28;20021;-40
2022/04/23 03:02:28;;;;;;;18.52;6.53;;;;;;;;;;5016509;28;20029;-41
2022/04/23 03:04:57;;;;;;;15.20;6.32;;;;;;;;;;5019137;28;20391;-42
2022/04/23 03:07:28;;;;;;;15.80;6.60;;;;;;;;;;5020099;28;20105;-43
2022/04/23 03:10:00;;;;;;;15.80;6.13;;;;;;;;;;5022847;28;20117;-40
2022/04/23 03:12:30;;;;;;;14.30;6.40;;;;;;;;;;5020622;28;20028;-41
2022/04/23 03:14:59;;;;;;;21.95;6.10;;;;;;;;;;5024075;28;20045;-42
2022/04/23 03:17:26;;;;;;;14.90;5.88;;;;;;;;;;5025558;28;20026;-40
2022/04/23 03:19:53;;;;;;;13.32;6.60;;;;;;;;;;5025247;28;20030;-42
2022/04/23 03:22:21;;;;;;;13.73;6.07;;;;;;;;;;5022810;28;20109;-43
2022/04/23 03:24:48;;;;;;;15.45;6.40;;;;;;;;;;5023620;28;20037;-42
2022/04/23 03:27:16;;;;;;;19.25;6.80;;;;;;;;;;5022815;28;20025;-41
2022/04/23 03:29:44;;;;;;;16.92;6.22;;;;;;;;;;5023579;28;20029;-41
2022/04/23 03:32:11;;;;;;;12.07;5.60;;;;;;;;;;5024314;28;20514;-41
2022/04/23 03:34:38;;;;;;;18.52;6.10;;;;;;;;;;5023222;28;20030;-41
2022/04/23 03:37:06;;;;;;;12.57;5.70;;;;;;;;;;5020064;28;20494;-41
2022/04/23 03:39:33;;;;;;;20.13;5.97;;;;;;;;;;5022195;28;20065;-43
2022/04/23 03:42:03;;;;;;;10.00;5.18;;;;;;;;;;5024066;28;20018;-42
2022/04/23 03:44:31;;;;;;;12.82;5.63;;;;;;;;;;5023689;28;20029;-41
2022/04/23 03:47:01;;;;;;;12.77;5.28;;;;;;;;;;5023703;28;20029;-41
2022/04/23 03:49:29;;;;;;;18.25;5.38;;;;;;;;;;5018737;28;20037;-41
2022/04/23 03:51:56;;;;;;;9.25;5.15;;;;;;;;;;5013235;28;20499;-42
2022/04/23 03:54:24;;;;;;;11.95;5.50;;;;;;;;;;5012955;28;20109;-41
2022/04/23 03:56:51;;;;;;;15.25;5.90;;;;;;;;;;5013500;28;20030;-41
2022/04/23 03:59:24;;;;;;;13.73;5.63;;;;;;;;;;5014551;28;20018;-39
2022/04/23 04:01:55;;;;;;;11.68;5.10;;;;;;;;;;5020845;28;20538;-40
2022/04/23 04:04:23;;;;;;;10.65;4.70;;;;;;;;;;5022417;28;20026;-40
2022/04/23 04:06:49;;;;;;;10.57;4.57;;;;;;;;;;5005269;28;20025;-40
2022/04/23 04:09:16;;;;;;;12.25;5.38;;;;;;;;;;5021943;28;20037;-41
2022/04/23 04:12:02;;;;;;;10.38;5.28;;;;;;;;;;5023524;28;20024;-39
2022/04/23 04:14:34;;;;;;;11.70;4.80;;;;;;;;;;5014855;28;20459;-39
2022/04/23 04:17:01;;;;;;;9.25;4.40;;;;;;;;;;5032192;28;20017;-40
2022/04/23 04:19:29;;;;;;;8.85;4.90;;;;;;;;;;5032326;28;20104;-40
2022/04/23 04:21:56;;;;;;;13.75;4.70;;;;;;;;;;5032303;28;20032;-39
2022/04/23 04:24:23;;;;;;;7.50;4.18;;;;;;;;;;5031817;28;20453;-40
2022/04/23 04:26:50;;;;;;;8.88;4.20;;;;;;;;;;5032101;28;20089;-40
2022/04/23 04:29:18;;;;;;;9.82;4.40;;;;;;;;;;5031414;28;20034;-38
2022/04/23 04:31:51;;;;;;;6.60;3.38;;;;;;;;;;5030774;28;20056;-39
2022/04/23 04:34:19;;;;;;;6.38;4.03;;;;;;;;;;5014548;28;20627;-38
2022/04/23 04:36:47;;;;;;;8.35;3.83;;;;;;;;;;5032050;28;20057;-39
2022/04/23 04:39:14;;;;;;;9.20;3.50;;;;;;;;;;5032644;28;20373;-39
2022/04/23 04:41:41;;;;;;;9.50;3.67;;;;;;;;;;5031806;28;20029;-39
2022/04/23 04:44:09;;;;;;;8.38;3.55;;;;;;;;;;5032814;28;20048;-39
2022/04/23 04:46:36;;;;;;;7.53;3.17;;;;;;;;;;5032252;28;20024;-39
2022/04/23 04:49:04;;;;;;;11.50;3.78;;;;;;;;;;5014684;28;20034;-39
2022/04/23 04:51:31;;;;;;;11.57;3.60;;;;;;;;;;5031329;28;20376;-39
2022/04/23 04:53:58;;;;;;;7.38;3.30;;;;;;;;;;5032727;28;20044;-39
2022/04/23 04:56:25;;;;;;;8.77;3.92;;;;;;;;;;5032066;28;20100;-39
2022/04/23 04:58:52;;;;;;;7.63;3.70;;;;;;;;;;5032324;28;20437;-39
2022/04/23 05:01:19;;;;;;;6.88;3.30;;;;;;;;;;5032569;28;20116;-39
2022/04/23 05:03:46;;;;;;;9.07;3.63;;;;;;;;;;5031792;28;20426;-39
2022/04/23 05:06:14;;;;;;;7.43;3.45;;;;;;;;;;5031860;28;20028;-39
2022/04/23 05:08:41;;;;;;;8.25;3.22;;;;;;;;;;5032419;28;20095;-39
2022/04/23 05:11:09;;;;;;;7.88;3.35;;;;;;;;;;5032086;28;20064;-39
2022/04/23 05:13:37;;;;;;;8.15;3.25;;;;;;;;;;5031513;28;20041;-39
2022/04/23 05:16:07;;;;;;;6.28;2.55;;;;;;;;;;5032300;28;20443;-39
2022/04/23 05:18:35;;;;;;;7.43;3.33;;;;;;;;;;5031526;28;20083;-39
2022/04/23 05:21:02;;;;;;;6.13;2.92;;;;;;;;;;5032033;28;20045;-39
2022/04/23 05:23:30;;;;;;;6.53;3.40;;;;;;;;;;5031674;28;20030;-39
2022/04/23 05:25:57;;;;;;;8.57;3.03;;;;;;;;;;5032359;28;20104;-39
2022/04/23 05:28:24;;;;;;;5.10;2.83;;;;;;;;;;5031344;28;20033;-39
2022/04/23 05:30:51;;;;;;;6.38;3.17;;;;;;;;;;5031673;28;20053;-39
2022/04/23 05:33:18;;;;;;;5.60;2.75;;;;;;;;;;5030857;28;20406;-39
2022/04/23 05:35:45;;;;;;;4.32;2.40;;;;;;;;;;5032149;28;20099;-39
2022/04/23 05:38:12;;;;;;;5.85;2.40;;;;;;;;;;5031134;28;20029;-39
2022/04/23 05:40:39;;;;;;;4.82;2.00;;;;;;;;;;5031795;28;20065;-39
2022/04/23 05:43:06;;;;;;;4.65;2.03;;;;;;;;;;5031650;28;20053;-39
2022/04/23 05:45:33;;;;;;;6.97;2.17;;;;;;;;;;5031868;28;20112;-39
2022/04/23 05:48:00;;;;;;;3.45;1.80;;;;;;;;;;5031048;28;20433;-39
2022/04/23 05:50:27;;;;;;;3.47;1.85;;;;;;;;;;5031251;28;20037;-39
2022/04/23 05:52:55;;;;;;;4.32;2.13;;;;;;;;;;5031707;28;20033;-39
2022/04/23 05:55:22;;;;;;;5.20;2.15;;;;;;;;;;5014131;28;20037;-39
2022/04/23 05:57:49;;;;;;;6.22;2.00;;;;;;;;;;5031112;28;20033;-39
2022/04/23 06:00:17;;;;;;;3.20;1.90;;;;;;;;;;5031736;28;20048;-39
2022/04/23 06:02:44;;;;;;;3.50;2.03;;;;;;;;;;5031080;28;20483;-39
2022/04/23 06:05:11;;;;;;;5.72;2.00;;;;;;;;;;5031724;28;20074;-39
2022/04/23 06:07:38;;;;;;;4.53;1.63;;;;;;;;;;5031283;28;20038;-39
2022/04/23 06:10:06;;;;;;;3.78;1.80;;;;;;;;;;5030669;28;20492;-39
2022/04/23 06:12:34;;;;;;;4.00;1.60;;;;;;;;;;5031874;28;20093;-39
2022/04/23 06:15:01;;;;;;;3.88;1.95;;;;;;;;;;5031243;28;20033;-39
2022/04/23 06:17:28;;;;;;;3.75;1.50;;;;;;;;;;5031345;28;20065;-39
2022/04/23 06:19:58;;;;;;;4.20;2.13;;;;;;;;;;5031490;28;20464;-39
2022/04/23 06:22:25;;;;;;;4.05;2.25;;;;;;;;;;5031765;28;20523;-39
2022/04/23 06:24:52;;;;;;;3.97;2.33;;;;;;;;;;5030796;28;20029;-39
2022/04/23 06:27:20;;;;;;;3.20;2.00;;;;;;;;;;5031733;28;20177;-39
2022/04/23 06:29:47;;;;;;;3.85;2.70;;;;;;;;;;5030931;28;20041;-39
2022/04/23 06:32:14;;;;;;;4.43;2.50;;;;;;;;;;5030944;28;20569;-39
2022/04/23 06:34:41;;;;;;;3.40;1.77;;;;;;;;;;5031718;28;20054;-39
2022/04/23 06:37:08;;;;;;;3.40;2.38;;;;;;;;;;5031089;28;20435;-39
2022/04/23 06:39:36;;;;;;;3.97;2.45;;;;;;;;;;5030521;28;20072;-39
2022/04/23 06:42:03;;;;;;;3.83;1.95;;;;;;;;;;5031582;28;20030;-39
2022/04/23 06:44:29;;;;;;;4.18;2.10;;;;;;;;;;5031259;28;20053;-39
2022/04/23 06:46:56;;;;;;;2.20;1.70;;;;;;;;;;5034252;28;20083;-39
2022/04/23 06:49:26;;;;;;;3.55;2.42;;;;;;;;;;5034120;28;20076;-39
2022/04/23 06:51:52;;;;;;;4.50;1.60;;;;;;;;;;5034663;28;20033;-39
2022/04/23 06:54:19;;;;;;;3.05;2.10;;;;;;;;;;5034642;28;20025;-39
2022/04/23 06:56:46;;;;;;;2.50;1.75;;;;;;;;;;5034172;28;20060;-39
2022/04/23 06:59:13;;;;;;;2.90;1.90;;;;;;;;;;5034905;28;20119;-39
2022/04/23 07:01:40;;;;;;;1.73;1.42;;;;;;;;;;5015940;28;20501;-39
2022/04/23 07:04:09;;;;;;;3.13;1.70;;;;;;;;;;5034641;28;20057;-39
2022/04/23 07:06:36;;;;;;;3.38;1.85;;;;;;;;;;5034054;28;20025;-39
2022/04/23 07:09:04;;;;;;;2.17;1.60;;;;;;;;;;5034288;28;20033;-39
2022/04/23 07:11:31;;;;;;;3.42;2.00;;;;;;;;;;5016159;28;20025;-39
2022/04/23 07:13:58;;;;;;;2.30;1.58;;;;;;;;;;5033518;28;20028;-39
2022/04/23 07:16:25;;;;;;;1.90;1.60;;;;;;;;;;5034525;28;20025;-40
2022/04/23 07:18:55;;;;;;;4.13;1.50;;;;;;;;;;5034233;28;20039;-39
2022/04/23 07:21:22;;;;;;;3.10;1.50;;;;;;;;;;5034278;28;20029;-39
2022/04/23 07:24:10;;;;;;;2.72;2.08;;;;;;;;;;5033558;28;20106;-39
2022/04/23 07:26:37;;;;;;;2.30;1.42;;;;;;;;;;5034372;28;20116;-39
2022/04/23 07:29:06;;;;;;;2.28;1.50;;;;;;;;;;5033090;28;20041;-39
2022/04/23 07:31:33;;;;;;;2.40;1.52;;;;;;;;;;5034219;28;20025;-39
2022/04/23 07:39:31;;;;;;;3.75;1.88;;;;;;;;;;5033050;28;20060;-39
2022/04/23 07:41:58;;;;;;;5.68;1.85;;;;;;;;;;5034183;28;20109;-39
2022/04/23 07:44:25;;;;;;;2.53;1.80;;;;;;;;;;5033233;28;20602;-39
2022/04/23 07:46:53;;;;;;;2.33;1.60;;;;;;;;;;5033737;28;20037;-39
2022/04/23 07:49:20;;;;;;;5.35;1.88;;;;;;;;;;5033113;28;20037;-39
2022/04/23 07:51:47;;;;;;;2.75;1.60;;;;;;;;;;5033276;28;20398;-39
2022/04/23 07:54:14;;;;;;;2.75;1.70;;;;;;;;;;5015222;28;20498;-39
2022/04/23 07:56:41;;;;;;;2.15;1.40;;;;;;;;;;5033402;28;20086;-39
2022/04/23 07:59:09;;;;;;;2.30;1.35;;;;;;;;;;5032997;28;20131;-39
2022/04/23 08:01:36;;;;;;;2.53;1.40;;;;;;;;;;5015849;28;20071;-39
2022/04/23 08:04:03;;;;;;;2.88;1.40;;;;;;;;;;5033010;28;20052;-39
2022/04/23 08:06:31;;;;;;;3.05;1.50;;;;;;;;;;5033280;28;20040;-39
2022/04/23 08:08:58;;;;;;;2.25;1.45;;;;;;;;;;5032884;28;20033;-39
2022/04/23 08:11:25;;;;;;;5.85;1.60;;;;;;;;;;5033290;28;20041;-39
2022/04/23 08:13:52;;;;;;;1.73;1.15;;;;;;;;;;5032525;28;20029;-39
2022/04/23 08:16:20;;;;;;;1.90;1.20;;;;;;;;;;5033134;28;20042;-39
2022/04/23 08:18:47;;;;;;;2.83;1.50;;;;;;;;;;5032780;28;20033;-39
2022/04/23 08:21:14;;;;;;;2.38;1.27;;;;;;;;;;5032348;28;20048;-39
2022/04/23 08:23:41;;;;;;;2.65;1.27;;;;;;;;;;5032705;28;20026;-39
2022/04/23 08:26:08;;;;;;;1.75;1.25;;;;;;;;;;5032613;28;20100;-39
2022/04/23 08:31:21;;;;;;;1.27;1.08;;;;;;;;;;5031863;28;20458;-39
2022/04/23 08:34:02;;;;;;;2.13;1.20;;;;;;;;;;5032381;28;20076;-39
2022/04/23 08:36:31;;;;;;;2.07;1.27;;;;;;;;;;5032789;28;20029;-39
2022/04/23 08:38:59;;;;;;;1.58;1.30;;;;;;;;;;5032170;28;20478;-39
2022/04/23 08:41:29;;;;;;;1.80;1.30;;;;;;;;;;5032829;28;20059;-39
2022/04/23 08:43:57;;;;;;;2.08;1.40;;;;;;;;;;5032184;28;20791;-39
2022/04/23 08:46:26;;;;;;;1.85;1.20;;;;;;;;;;5032630;28;20028;-39
2022/04/23 08:49:00;;;;;;;2.20;1.33;;;;;;;;;;5032675;28;20037;-39
2022/04/23 08:51:28;;;;;;;3.00;1.50;;;;;;;;;;5031769;28;20036;-39
2022/04/23 08:53:57;;;;;;;2.53;1.35;;;;;;;;;;5032349;28;20505;-40
2022/04/23 08:56:24;;;;;;;1.45;1.02;;;;;;;;;;5032304;28;20030;-39
2022/04/23 08:58:51;;;;;;;1.95;1.10;;;;;;;;;;5032520;28;20017;-39
2022/04/23 09:01:18;;;;;;;3.35;1.00;;;;;;;;;;5013844;28;20033;-39
2022/04/23 09:03:45;;;;;;;1.35;1.25;;;;;;;;;;5031835;28;20045;-39
2022/04/23 09:06:12;;;;;;;2.22;1.30;;;;;;;;;;5032425;28;20029;-39
2022/04/23 09:08:59;;;;;;;1.20;1.10;;;;;;;;;;5031566;28;20048;-39
2022/04/23 09:11:35;;;;;;;1.52;1.13;;;;;;;;;;5031634;28;20041;-39
2022/04/23 09:14:06;;;;;;;5.20;1.30;;;;;;;;;;5032415;28;20092;-39
2022/04/23 09:25:11;;;;;;;1.40;1.02;;;;;;;;;;5032310;28;20403;-39
2022/04/23 09:27:43;;;;;;;1.00;0.90;;;;;;;;;;5031858;28;20490;-39
2022/04/23 09:30:11;;;;;;;2.40;0.95;;;;;;;;;;5031473;28;20069;-39
2022/04/23 09:32:38;;;;;;;2.05;1.17;;;;;;;;;;5031061;28;20060;-39
2022/04/23 09:35:06;;;;;;;1.17;0.93;;;;;;;;;;5031849;28;20048;-39
2022/04/23 09:40:21;;;;;;;1.35;1.00;;;;;;;;;;5030853;28;20598;-39
2022/04/23 09:43:02;;;;;;;2.20;1.00;;;;;;;;;;5031791;28;20037;-39
2022/04/23 09:45:30;;;;;;;3.38;1.30;;;;;;;;;;5031367;28;20040;-39
2022/04/23 09:47:58;;;;;;;3.00;1.05;;;;;;;;;;5031643;28;20029;-39
2022/04/23 09:50:25;;;;;;;2.70;1.27;;;;;;;;;;5031484;28;20037;-39
2022/04/23 09:52:53;;;;;;;1.77;0.73;;;;;;;;;;5031969;28;20155;-39
2022/04/23 09:55:25;;;;;;;1.52;1.10;;;;;;;;;;5031173;28;20467;-39
2022/04/23 09:57:52;;;;;;;1.05;0.95;;;;;;;;;;5014010;28;20055;-39
2022/04/23 10:00:19;;;;;;;1.70;0.98;;;;;;;;;;5031261;28;20037;-39
2022/04/23 10:02:47;;;;;;;1.00;0.90;;;;;;;;;;5031656;28;20033;-39
2022/04/23 10:05:17;;;;;;;1.35;0.90;;;;;;;;;;5031811;28;20449;-39
2022/04/23 10:07:48;;;;;;;2.20;1.10;;;;;;;;;;5030682;28;20049;-39
2022/04/23 10:10:17;;;;;;;1.60;0.90;;;;;;;;;;5030905;28;20137;-39
2022/04/23 10:12:45;;;;;;;1.00;0.88;;;;;;;;;;5031774;28;20026;-39
2022/04/23 10:15:14;;;;;;;3.03;0.90;;;;;;;;;;5030633;28;20092;-39
2022/04/23 10:17:42;;;;;;;1.67;0.90;;;;;;;;;;5031726;28;20476;-39
2022/04/23 10:20:12;;;;;;;0.98;0.88;;;;;;;;;;5033535;28;20091;-39
2022/04/23 10:22:44;;;;;;;1.52;1.05;;;;;;;;;;5035593;28;20410;-39
2022/04/23 10:25:24;;;;;;;3.05;0.90;;;;;;;;;;5035554;28;20100;-39
2022/04/23 10:27:53;;;;;;;3.13;0.82;;;;;;;;;;5034390;28;20040;-39
2022/04/23 10:30:19;;;;;;;1.10;0.85;;;;;;;;;;5017553;28;20453;-39
2022/04/23 10:32:47;;;;;;;0.93;0.82;;;;;;;;;;5034469;28;20060;-39
2022/04/23 10:35:19;;;;;;;1.08;0.70;;;;;;;;;;5035306;28;20074;-39
2022/04/23 10:37:49;;;;;;;3.45;0.98;;;;;;;;;;5035366;28;20072;-39
2022/04/23 10:40:18;;;;;;;2.38;0.98;;;;;;;;;;5035104;28;20055;-39
2022/04/23 10:43:03;;;;;;;2.00;0.90;;;;;;;;;;5015932;28;20025;-39
2022/04/23 10:45:35;;;;;;;0.77;0.77;;;;;;;;;;5035044;28;20021;-39
2022/04/23 10:48:02;;;;;;;;;;;;;;;;;;5034848;28;20021;-39
2022/04/23 10:50:33;;;;;;;2.00;1.25;;;;;;;;;;5034645;28;19948;-39
2022/04/23 10:53:03;;;;;;;1.00;0.80;;;;;;;;;;5034981;28;20033;-39
2022/04/23 10:55:31;;;;;;;1.52;0.90;;;;;;;;;;5034408;28;20075;-39
2022/04/23 10:58:17;;;;;;;1.70;0.80;;;;;;;;;;5034884;28;20087;-39
2022/04/23 11:00:45;;;;;;;1.38;0.95;;;;;;;;;;5031216;28;20033;-40
2022/04/23 11:03:12;;;;;;;0.68;0.60;;;;;;;;;;5014874;28;20030;-39
2022/04/23 11:14:04;;;;;;;;;;;;;;;;;;5035039;28;20571;-39
2022/04/23 11:16:32;;;;;;;12.73;1.02;;;;;;;;;;5030179;28;20018;-40
2022/04/23 11:19:00;;;;;;;6.97;0.98;;;;;;;;;;5014265;28;20030;-40
2022/04/23 11:21:28;;;;;;;13.68;1.75;;;;;;;;;;5018760;28;20022;-39
2022/04/23 11:23:56;;;;;;;4.00;1.30;;;;;;;;;;5028840;28;20079;-40
2022/04/23 11:26:44;;;;;;;8.13;1.02;;;;;;;;;;5014660;28;20041;-40
2022/04/23 11:29:12;;;;;;;8.23;1.17;;;;;;;;;;5015617;28;20037;-39
2022/04/23 11:31:39;;;;;;;3.20;1.20;;;;;;;;;;5029393;28;20045;-40
2022/04/23 11:34:06;;;;;;;5.68;1.20;;;;;;;;;;5033679;28;20049;-40
2022/04/23 11:36:37;;;;;;;6.82;1.20;;;;;;;;;;5033489;28;20086;-40
2022/04/23 11:39:10;;;;;;;11.35;1.60;;;;;;;;;;5032943;28;20029;-39
2022/04/23 11:41:42;;;;;;;3.97;1.02;;;;;;;;;;5033194;28;20060;-39
2022/04/23 11:44:13;;;;;;;6.88;1.20;;;;;;;;;;5033771;28;20041;-39
2022/04/23 11:46:43;;;;;;;6.85;1.35;;;;;;;;;;5015731;28;20878;-39
2022/04/23 11:49:10;;;;;;;8.50;1.20;;;;;;;;;;5033123;28;20037;-39
2022/04/23 11:51:41;;;;;;;6.75;1.48;;;;;;;;;;5033182;28;20037;-38
2022/04/23 11:54:08;;;;;;;7.60;1.05;;;;;;;;;;5033570;28;20025;-38
2022/04/23 11:56:36;;;;;;;5.95;1.20;;;;;;;;;;5032759;28;20033;-39
2022/04/23 11:59:07;;;;;;;7.38;1.23;;;;;;;;;;5033577;28;20033;-40
2022/04/23 12:01:34;;;;;;;3.75;1.25;;;;;;;;;;5033149;28;20029;-40
2022/04/23 12:04:01;;;;;;;3.95;1.20;;;;;;;;;;5033387;28;20025;-40
2022/04/23 12:06:41;;;;;;;5.60;1.50;;;;;;;;;;5033043;28;20075;-40
2022/04/23 12:09:08;;;;;;;4.13;1.25;;;;;;;;;;5033183;28;20080;-40
2022/04/23 12:11:35;;;;;;;4.80;1.20;;;;;;;;;;5033044;28;20045;-40
2022/04/23 12:14:03;;;;;;;3.78;1.10;;;;;;;;;;5032771;28;20108;-40
2022/04/23 12:16:34;;;;;;;4.28;1.30;;;;;;;;;;5033280;28;20484;-40
2022/04/23 12:19:06;;;;;;;9.95;1.45;;;;;;;;;;5032574;28;20554;-40
2022/04/23 12:21:33;;;;;;;9.25;2.13;;;;;;;;;;5033046;28;20048;-40
2022/04/23 12:24:01;;;;;;;9.90;2.50;;;;;;;;;;5033024;28;20022;-40
2022/04/23 12:26:38;;;;;;;5.53;1.83;;;;;;;;;;5032705;28;20059;-40
2022/04/23 12:40:44;;;;;;;9.32;2.08;;;;;;;;;;4978813;28;20404;-37
2022/04/23 12:43:20;;;;;;;11.52;2.42;;;;;;;;;;4993360;28;20023;-37
2022/04/23 12:45:48;;;;;;;12.00;1.83;;;;;;;;;;4992206;28;20030;-37
2022/04/23 12:48:15;;;;;;;5.43;1.90;;;;;;;;;;4993464;28;20034;-38
2022/04/23 12:50:46;;;;;;;6.05;1.60;;;;;;;;;;4992705;28;20038;-37
2022/04/23 12:53:31;;;;;;;11.27;1.75;;;;;;;;;;4992785;28;20033;-37
2022/04/23 12:55:59;;;;;;;7.60;2.00;;;;;;;;;;4992258;28;20038;-37
2022/04/23 12:58:29;;;;;;;10.77;2.10;;;;;;;;;;4993056;28;20034;-37
2022/04/23 13:00:56;;;;;;;7.35;1.75;;;;;;;;;;4992832;28;20109;-37
2022/04/23 13:05:59;;;;;;;8.00;1.70;;;;;;;;;;4993201;28;20037;-37
2022/04/23 13:13:59;;;;;;;5.45;1.83;;;;;;;;;;4974663;28;20126;-37
2022/04/23 13:16:28;;;;;;;2.28;1.25;;;;;;;;;;4993001;28;20089;-37
2022/04/23 13:18:59;;;;;;;5.18;1.65;;;;;;;;;;4992877;28;20476;-37
2022/04/23 13:21:27;;;;;;;5.78;1.70;;;;;;;;;;4992230;28;20374;-37
2022/04/23 13:23:54;;;;;;;5.32;1.25;;;;;;;;;;4992737;28;20054;-37
2022/04/23 13:26:21;;;;;;;4.75;1.38;;;;;;;;;;4992386;28;20034;-37
2022/04/23 13:28:49;;;;;;;4.45;1.38;;;;;;;;;;4992423;28;20113;-37
2022/04/23 13:31:16;;;;;;;8.57;1.50;;;;;;;;;;4991934;28;20038;-37
2022/04/23 13:33:43;;;;;;;2.50;1.08;;;;;;;;;;4992894;28;20061;-37
2022/04/23 13:36:11;;;;;;;4.28;1.35;;;;;;;;;;4992471;28;20620;-37
2022/04/23 13:38:38;;;;;;;6.75;1.60;;;;;;;;;;4992450;28;20023;-37
2022/04/23 13:41:06;;;;;;;3.88;1.83;;;;;;;;;;4992067;28;20070;-37
2022/04/23 13:43:35;;;;;;;4.43;1.20;;;;;;;;;;4992781;28;20096;-37
2022/04/23 13:46:02;;;;;;;3.63;1.40;;;;;;;;;;4992016;28;20030;-37
2022/04/23 13:48:29;;;;;;;2.67;1.05;;;;;;;;;;4992365;28;20032;-37
2022/04/23 13:50:56;;;;;;;3.83;1.10;;;;;;;;;;4992752;28;20049;-37
2022/04/23 13:53:23;;;;;;;5.00;1.55;;;;;;;;;;4992520;28;20106;-37
2022/04/23 13:55:50;;;;;;;3.38;1.30;;;;;;;;;;4995972;28;20077;-37
2022/04/23 13:58:17;;;;;;;3.45;1.27;;;;;;;;;;4996275;28;20473;-37
2022/04/23 14:00:44;;;;;;;2.65;1.20;;;;;;;;;;4996212;28;20046;-37
2022/04/23 14:11:26;;;;;;;3.65;1.15;;;;;;;;;;4996246;28;20053;-37
2022/04/23 14:13:53;;;;;;;5.18;1.20;;;;;;;;;;4995887;28;20085;-37
2022/04/23 14:16:20;;;;;;;4.45;1.38;;;;;;;;;;4995975;28;20558;-37
2022/04/23 14:18:47;;;;;;;1.70;0.98;;;;;;;;;;4996332;28;20063;-37
2022/04/23 14:21:14;;;;;;;3.75;1.20;;;;;;;;;;4995278;28;20447;-37
2022/04/23 14:23:41;;;;;;;4.03;1.10;;;;;;;;;;4995666;28;20034;-37
2022/04/23 14:26:09;;;;;;;4.43;1.20;;;;;;;;;;4995872;28;20022;-37
2022/04/23 14:28:36;;;;;;;3.83;1.10;;;;;;;;;;4995338;28;20097;-37
2022/04/23 14:31:03;;;;;;;5.80;1.10;;;;;;;;;;4995442;28;20046;-37
2022/04/23 14:33:30;;;;;;;3.50;1.30;;;;;;;;;;4995690;28;20129;-37
2022/04/23 14:35:57;;;;;;;4.90;1.23;;;;;;;;;;4995285;28;20037;-37
2022/04/23 14:38:24;;;;;;;2.90;1.10;;;;;;;;;;4995576;28;20022;-37
2022/04/23 14:40:51;;;;;;;3.33;1.08;;;;;;;;;;4995456;28;20030;-37
2022/04/23 14:43:18;;;;;;;3.78;1.30;;;;;;;;;;4995765;28;20053;-37
2022/04/23 14:45:45;;;;;;;2.90;1.00;;;;;;;;;;4995551;28;20018;-37
2022/04/23 14:48:12;;;;;;;5.68;0.98;;;;;;;;;;4994862;28;20373;-37
2022/04/23 14:53:25;;;;;;;3.17;0.90;;;;;;;;;;4995779;28;20118;-37
2022/04/23 14:55:52;;;;;;;4.85;1.17;;;;;;;;;;4995180;28;20037;-37
2022/04/23 14:58:21;;;;;;;2.22;1.10;;;;;;;;;;4995068;28;20089;-37
2022/04/23 15:00:48;;;;;;;2.63;1.17;;;;;;;;;;4994971;28;20061;-37
2022/04/23 15:03:16;;;;;;;2.75;1.00;;;;;;;;;;4994414;28;20058;-37
2022/04/23 15:05:43;;;;;;;2.33;0.98;;;;;;;;;;4993852;28;20067;-37
2022/04/23 15:08:10;;;;;;;3.75;1.10;;;;;;;;;;4995019;28;20065;-37
2022/04/23 15:10:37;;;;;;;1.30;0.90;;;;;;;;;;4977172;28;20089;-37
2022/04/23 15:13:06;;;;;;;3.88;1.45;;;;;;;;;;4994905;28;20037;-37
2022/04/23 15:15:33;;;;;;;2.92;0.90;;;;;;;;;;4994869;28;20476;-37
2022/04/23 15:18:00;;;;;;;3.53;1.20;;;;;;;;;;4994890;28;20047;-37
2022/04/23 15:20:28;;;;;;;1.92;1.00;;;;;;;;;;4995274;28;20154;-37
2022/04/23 15:22:55;;;;;;;3.38;0.95;;;;;;;;;;4994309;28;20049;-37
2022/04/23 15:25:23;;;;;;;2.63;1.08;;;;;;;;;;4994962;28;20062;-37
2022/04/23 15:27:54;;;;;;;1.85;0.90;;;;;;;;;;4994233;28;20105;-37
2022/04/23 15:30:26;;;;;;;3.47;0.90;;;;;;;;;;4994078;28;20046;-37
2022/04/23 15:32:56;;;;;;;4.00;1.23;;;;;;;;;;4977180;28;20050;-37
2022/04/23 15:35:24;;;;;;;3.05;1.00;;;;;;;;;;4994747;28;20485;-37
2022/04/23 15:37:52;;;;;;;3.60;1.10;;;;;;;;;;4994087;28;20026;-37
2022/04/23 15:40:24;;;;;;;2.08;1.10;;;;;;;;;;4994736;28;20101;-37
2022/04/23 15:42:51;;;;;;;4.83;1.10;;;;;;;;;;4993940;28;20488;-37
2022/04/23 15:45:18;;;;;;;2.05;1.00;;;;;;;;;;4994418;28;20033;-37